Time;durP1;ratioP1;P1;durP2;ratioP2;P2;SDS_P1;SDS_P2;PMS_P1;PMS_P2;Temp;Humidity;BMP_temperature;BMP_pressure;BME280_temperature;BME280_humidity;BME280_pressure;Samples;Min_cycle;Max_cycle;Signal;HPM_P1;HPM_P2
2023/08/13 00:02:40;;;;;;;8.10;5.20;;;;;;;15.42;75.03;100624.64;102767;276;114631;-55
2023/08/13 00:05:18;;;;;;;9.70;5.50;;;;;;;15.46;75.13;100625.81;102816;276;94324;-54
2023/08/13 00:07:57;;;;;;;8.80;5.10;;;;;;;15.47;75.10;100622.33;102823;276;96850;-55
2023/08/13 00:10:43;;;;;;;10.90;5.50;;;;;;;15.49;75.04;100616.77;102800;276;120875;-55
2023/08/13 00:13:23;;;;;;;8.20;4.70;;;;;;;15.50;75.24;100617.42;102905;276;105348;-57
2023/08/13 00:16:00;;;;;;;7.90;4.70;;;;;;;15.55;75.15;100618.84;102880;276;114532;-54
2023/08/13 00:18:37;;;;;;;;;;;;;;;15.58;74.96;100616.80;102737;276;97043;-54
2023/08/13 00:21:16;;;;;;;7.80;4.60;;;;;;;15.61;74.97;100614.31;102760;276;96824;-56
2023/08/13 00:23:55;;;;;;;7.20;4.40;;;;;;;15.67;74.78;100619.20;102866;276;120183;-57
2023/08/13 00:26:31;;;;;;;5.70;3.90;;;;;;;15.72;74.64;100614.23;102925;276;106028;-56
2023/08/13 00:29:12;;;;;;;5.20;3.50;;;;;;;15.79;74.34;100622.45;102773;276;113982;-54
2023/08/13 00:31:49;;;;;;;7.30;3.80;;;;;;;15.85;74.19;100622.16;102837;276;95901;-57
2023/08/13 00:34:26;;;;;;;5.70;4.10;;;;;;;15.87;74.18;100622.19;102958;276;98041;-58
2023/08/13 00:37:07;;;;;;;6.10;4.20;;;;;;;15.89;74.05;100619.75;102824;276;121285;-53
2023/08/13 00:39:43;;;;;;;8.40;4.10;;;;;;;15.91;73.94;100620.74;102795;265;106174;-54
2023/08/13 00:42:28;;;;;;;6.10;4.00;;;;;;;15.90;74.03;100620.48;102869;276;114392;-58
2023/08/13 00:45:08;;;;;;;5.30;3.80;;;;;;;15.91;74.29;100616.42;102997;276;95206;-57
2023/08/13 00:47:49;;;;;;;7.80;4.00;;;;;;;15.92;74.33;100619.69;102926;265;97030;-55
2023/08/13 00:50:30;;;;;;;6.10;3.50;;;;;;;15.94;74.24;100622.82;102832;276;119969;-54
2023/08/13 00:53:06;;;;;;;4.40;3.50;;;;;;;15.98;73.84;100620.11;102822;276;105832;-55
2023/08/13 00:55:52;;;;;;;6.60;3.70;;;;;;;16.03;73.57;100618.31;102803;276;112858;-55
2023/08/13 00:58:34;;;;;;;5.10;3.60;;;;;;;16.12;73.08;100618.31;102783;276;93328;-54
2023/08/13 01:01:10;;;;;;;5.30;3.60;;;;;;;16.20;72.77;100614.39;102860;276;98176;-54
2023/08/13 01:03:46;;;;;;;5.60;3.20;;;;;;;16.25;72.51;100618.71;102810;276;121048;-54
2023/08/13 01:06:34;;;;;;;6.90;4.00;;;;;;;16.36;72.27;100617.21;102811;276;105053;-56
2023/08/13 01:09:17;;;;;;;6.40;3.30;;;;;;;16.52;71.80;100617.42;102727;276;114899;-56
2023/08/13 01:12:08;;;;;;;6.60;3.70;;;;;;;16.64;71.48;100613.65;102775;276;94471;-58
2023/08/13 01:14:50;;;;;;;4.40;3.40;;;;;;;16.74;71.22;100608.26;102953;276;97987;-58
2023/08/13 01:17:30;;;;;;;7.20;3.80;;;;;;;16.89;70.81;100607.11;102941;276;120211;-56
2023/08/13 01:20:09;;;;;;;7.90;3.80;;;;;;;17.00;70.48;100606.52;102991;276;103420;-58
2023/08/13 01:22:49;;;;;;;5.60;3.70;;;;;;;17.09;70.30;100608.04;102884;276;114999;-55
2023/08/13 01:25:27;;;;;;;5.70;3.70;;;;;;;17.12;69.87;100607.03;102830;276;93171;-55
2023/08/13 01:28:19;;;;;;;5.30;3.40;;;;;;;17.16;69.68;100606.95;102915;276;98341;-57
2023/08/13 01:31:06;;;;;;;7.80;3.90;;;;;;;17.21;69.53;100604.13;102965;276;119751;-54
2023/08/13 01:33:47;;;;;;;5.30;3.80;;;;;;;17.22;69.41;100602.52;102819;276;106254;-55
2023/08/13 01:36:27;;;;;;;6.80;4.10;;;;;;;17.22;69.09;100599.59;102822;276;114434;-54
2023/08/13 01:39:12;;;;;;;4.60;3.60;;;;;;;17.24;69.05;100597.41;102801;276;96370;-53
2023/08/13 01:41:55;;;;;;;;;;;;;;;17.27;69.02;100594.89;102914;276;96924;-58
2023/08/13 01:44:30;;;;;;;6.50;3.70;;;;;;;17.31;68.96;100594.50;102953;276;121622;-58
2023/08/13 01:47:07;;;;;;;5.50;3.50;;;;;;;17.35;68.91;100595.10;102944;276;105924;-56
2023/08/13 01:49:47;;;;;;;5.90;3.50;;;;;;;17.36;68.70;100589.46;102810;276;114422;-56
2023/08/13 01:52:24;;;;;;;6.80;3.80;;;;;;;17.37;68.96;100587.67;102824;276;94148;-55
2023/08/13 01:55:02;;;;;;;6.30;3.90;;;;;;;17.37;69.00;100587.92;102785;276;97733;-56
2023/08/13 01:57:41;;;;;;;5.40;3.90;;;;;;;17.37;69.09;100580.06;102810;276;120594;-54
2023/08/13 02:00:17;;;;;;;6.00;4.10;;;;;;;17.40;68.87;100580.57;102781;276;105126;-55
2023/08/13 02:02:55;;;;;;;8.10;3.90;;;;;;;17.42;68.79;100583.73;102807;276;114694;-52
2023/08/13 02:05:31;;;;;;;6.20;3.90;;;;;;;17.45;68.79;100584.21;102785;276;93351;-52
2023/08/13 02:08:12;;;;;;;8.40;4.20;;;;;;;17.48;68.49;100586.10;102747;275;97004;-56
2023/08/13 02:10:58;;;;;;;6.10;4.50;;;;;;;17.51;68.42;100583.41;102879;275;119110;-56
2023/08/13 02:13:38;;;;;;;8.30;5.20;;;;;;;17.56;68.31;100586.65;102956;275;105890;-58
2023/08/13 02:16:20;;;;;;;9.80;4.90;;;;;;;17.60;68.16;100584.89;103017;275;113321;-55
2023/08/13 02:19:05;;;;;;;9.60;5.40;;;;;;;17.61;68.11;100583.44;102820;275;93697;-56
2023/08/13 02:21:42;;;;;;;7.40;4.40;;;;;;;17.63;68.05;100580.71;102885;275;97301;-53
2023/08/13 02:24:18;;;;;;;9.00;4.80;;;;;;;17.64;67.93;100577.67;102860;275;121087;-54
2023/08/13 02:26:55;;;;;;;9.20;5.00;;;;;;;17.65;67.51;100572.46;102852;275;104627;-54
2023/08/13 02:29:36;;;;;;;6.80;4.90;;;;;;;17.64;67.53;100574.45;102844;275;114309;-53
2023/08/13 02:32:13;;;;;;;6.30;4.60;;;;;;;17.62;67.58;100573.75;102899;275;96412;-58
2023/08/13 02:34:53;;;;;;;8.80;5.20;;;;;;;17.61;67.41;100572.42;102909;275;97925;-57
2023/08/13 02:37:33;;;;;;;6.40;4.50;;;;;;;17.61;67.30;100574.02;102903;264;120274;-53
2023/08/13 02:40:09;;;;;;;8.20;4.90;;;;;;;17.59;67.38;100573.46;102873;275;106282;-53
2023/08/13 02:42:48;;;;;;;7.50;4.60;;;;;;;17.59;67.32;100567.45;102854;275;114464;-56
2023/08/13 02:45:28;;;;;;;8.10;4.90;;;;;;;17.59;67.32;100567.87;102845;275;94251;-56
2023/08/13 02:48:13;;;;;;;8.30;4.70;;;;;;;17.57;67.31;100561.30;103052;275;97395;-58
2023/08/13 02:50:57;;;;;;;7.30;4.70;;;;;;;17.53;67.11;100568.35;102972;264;118855;-58
2023/08/13 02:53:37;;;;;;;8.70;5.30;;;;;;;17.49;67.12;100560.49;102834;275;103911;-54
2023/08/13 02:56:15;;;;;;;9.40;5.00;;;;;;;17.45;67.23;100558.92;102822;275;113915;-55
2023/08/13 02:58:53;;;;;;;6.70;5.00;;;;;;;17.41;67.28;100555.64;102826;275;97088;-55
2023/08/13 03:01:32;;;;;;;8.00;4.70;;;;;;;17.37;67.27;100555.15;102827;275;97823;-55
2023/08/13 03:04:08;;;;;;;6.60;5.00;;;;;;;17.34;67.30;100552.48;102865;275;119407;-55
2023/08/13 03:06:52;;;;;;;8.60;5.20;;;;;;;17.35;67.43;100550.48;102876;275;105980;-55
2023/08/13 03:09:36;;;;;;;6.90;4.60;;;;;;;17.34;67.43;100542.20;102829;275;114206;-56
2023/08/13 03:12:14;;;;;;;;;;;;;;;17.32;67.44;100544.13;102897;275;93894;-56
2023/08/13 03:14:51;;;;;;;8.20;4.90;;;;;;;17.30;67.40;100548.81;102517;275;330872;-56
2023/08/13 03:17:28;;;;;;;7.20;4.60;;;;;;;17.26;67.67;100547.39;102866;275;119634;-53
2023/08/13 03:20:05;;;;;;;7.90;5.00;;;;;;;17.23;67.64;100547.52;102839;275;105870;-54
2023/08/13 03:22:42;;;;;;;8.20;4.60;;;;;;;17.20;67.86;100549.60;102843;275;113568;-56
2023/08/13 03:25:20;;;;;;;8.60;4.70;;;;;;;17.18;67.94;100550.15;102797;275;97452;-55
2023/08/13 03:27:58;;;;;;;7.30;5.10;;;;;;;17.15;68.18;100551.33;102679;277;99012;-53
2023/08/13 03:30:42;;;;;;;8.00;4.40;;;;;;;17.15;68.06;100555.25;102850;275;121864;-53
2023/08/13 03:33:19;;;;;;;7.40;4.70;;;;;;;17.15;68.27;100549.84;102865;275;104594;-54
2023/08/13 03:35:58;;;;;;;7.30;5.00;;;;;;;17.16;68.26;100542.51;102850;275;114168;-54
2023/08/13 03:38:33;;;;;;;8.50;5.30;;;;;;;17.18;68.29;100544.09;102819;275;94860;-55
2023/08/13 03:41:07;;;;;;;7.80;5.20;;;;;;;17.18;68.35;100554.52;102849;275;97617;-57
2023/08/13 03:43:48;;;;;;;6.00;5.10;;;;;;;17.18;68.53;100544.80;102878;275;121197;-58
2023/08/13 03:46:27;;;;;;;7.80;5.30;;;;;;;17.20;68.46;100535.08;102992;275;106426;-58
2023/08/13 03:49:06;;;;;;;9.30;5.20;;;;;;;17.23;68.47;100538.66;102978;275;114843;-58
2023/08/13 03:51:40;;;;;;;6.80;4.90;;;;;;;17.28;68.48;100541.45;102933;275;96700;-56
2023/08/13 03:54:16;;;;;;;6.30;4.80;;;;;;;17.36;68.51;100539.16;102848;275;98397;-56
2023/08/13 03:56:52;;;;;;;7.80;4.90;;;;;;;17.46;68.57;100538.14;102887;275;120797;-55
2023/08/13 03:59:28;;;;;;;8.50;5.00;;;;;;;17.59;68.65;100536.89;102830;275;105298;-56
2023/08/13 04:02:04;;;;;;;6.80;5.20;;;;;;;17.75;68.54;100543.34;102868;275;114486;-54
2023/08/13 04:04:41;;;;;;;7.20;4.80;;;;;;;17.87;68.37;100541.36;102800;275;94596;-55
2023/08/13 04:07:22;;;;;;;7.20;5.20;;;;;;;17.99;68.37;100539.55;102856;275;97585;-57
2023/08/13 04:10:01;;;;;;;8.00;5.00;;;;;;;18.10;68.26;100530.81;102841;275;120805;-56
2023/08/13 04:12:40;;;;;;;7.60;4.80;;;;;;;18.17;68.06;100530.33;102853;275;105810;-54
2023/08/13 04:15:16;;;;;;;6.20;5.00;;;;;;;18.29;67.97;100535.56;102842;275;114497;-53
2023/08/13 04:17:52;;;;;;;8.10;5.70;;;;;;;18.44;67.82;100536.02;102846;275;93151;-55
2023/08/13 04:20:30;;;;;;;9.10;5.50;;;;;;;18.59;67.67;100524.66;102649;277;97245;-56
2023/08/13 04:23:07;;;;;;;6.20;4.80;;;;;;;18.81;67.49;100534.95;102822;275;121235;-55
2023/08/13 04:25:43;;;;;;;8.00;4.70;;;;;;;19.05;67.29;100533.91;102860;275;106425;-54
2023/08/13 04:28:20;;;;;;;8.70;5.00;;;;;;;19.27;67.06;100526.58;102917;275;114551;-61
2023/08/13 04:30:56;;;;;;;7.50;5.70;;;;;;;19.51;66.89;100528.39;102823;275;94229;-59
2023/08/13 04:33:35;;;;;;;11.50;5.20;;;;;;;19.73;66.49;100532.55;102864;275;97150;-59
2023/08/13 04:36:09;;;;;;;6.40;5.10;;;;;;;19.91;66.15;100530.21;102852;275;120689;-55
2023/08/13 04:38:49;;;;;;;7.20;6.00;;;;;;;20.08;65.71;100528.02;102780;276;105385;-55
2023/08/13 04:41:29;;;;;;;8.20;5.00;;;;;;;20.26;65.48;100528.07;102796;276;112841;-59
2023/08/13 04:44:08;;;;;;;10.70;5.40;;;;;;;20.40;65.10;100527.48;102878;276;94858;-58
2023/08/13 04:46:47;;;;;;;9.00;5.30;;;;;;;20.54;64.85;100528.64;102918;276;97259;-57
2023/08/13 04:49:27;;;;;;;7.80;5.50;;;;;;;20.71;64.61;100536.02;102891;276;121364;-57
2023/08/13 04:52:06;;;;;;;6.10;5.30;;;;;;;21.27;64.39;100526.02;102909;276;105273;-56
2023/08/13 04:54:44;;;;;;;8.40;5.10;;;;;;;22.74;63.66;100535.28;102801;276;114388;-57
2023/08/13 04:57:20;;;;;;;6.30;4.70;;;;;;;24.63;61.78;100528.45;102840;276;94379;-54
2023/08/13 04:59:59;;;;;;;7.40;4.80;;;;;;;25.68;58.87;100518.25;102842;276;97978;-54
2023/08/13 05:02:37;;;;;;;7.10;4.60;;;;;;;24.80;57.43;100530.95;102779;276;121402;-54
2023/08/13 05:05:22;;;;;;;7.30;5.30;;;;;;;23.96;57.42;100526.91;102841;276;105711;-53
2023/08/13 05:08:03;;;;;;;7.60;4.70;;;;;;;23.31;57.51;100522.98;102823;276;113630;-54
2023/08/13 05:10:44;;;;;;;6.70;4.90;;;;;;;22.75;57.71;100525.27;102817;276;94136;-56
2023/08/13 05:13:26;;;;;;;6.00;4.60;;;;;;;22.39;58.09;100528.25;102850;276;98565;-54
2023/08/13 05:16:05;;;;;;;7.50;5.20;;;;;;;22.12;58.35;100523.40;102812;276;120502;-56
2023/08/13 05:18:44;;;;;;;8.70;4.90;;;;;;;21.90;58.67;100526.02;102820;276;105305;-56
2023/08/13 05:21:20;;;;;;;7.80;5.50;;;;;;;21.90;58.80;100523.42;102833;276;113616;-54
2023/08/13 05:24:01;;;;;;;6.20;4.70;;;;;;;22.02;59.00;100526.23;102824;276;93815;-55
2023/08/13 05:26:39;;;;;;;5.10;4.60;;;;;;;22.29;59.40;100526.85;102839;276;97734;-55
2023/08/13 05:29:19;;;;;;;5.70;5.10;;;;;;;22.60;59.28;100522.80;102793;276;120538;-56
2023/08/13 05:31:59;;;;;;;7.50;5.10;;;;;;;22.90;58.67;100517.44;102862;276;105842;-56
2023/08/13 05:34:47;;;;;;;8.30;4.50;;;;;;;23.54;58.71;100524.21;102794;276;114151;-55
2023/08/13 05:37:28;;;;;;;7.30;5.00;;;;;;;24.58;57.86;100528.27;102844;276;94368;-55
2023/08/13 05:40:08;;;;;;;6.60;4.80;;;;;;;25.96;56.43;100522.00;102856;275;96671;-56
2023/08/13 05:42:46;;;;;;;6.70;5.70;;;;;;;25.87;55.02;100518.86;102881;275;120441;-53
2023/08/13 05:45:21;;;;;;;5.60;5.00;;;;;;;25.31;54.97;100526.16;102838;275;105760;-54
2023/08/13 05:47:59;;;;;;;7.50;4.90;;;;;;;24.77;55.25;100522.23;102879;275;114191;-56
2023/08/13 05:50:36;;;;;;;6.50;4.50;;;;;;;24.32;55.46;100518.80;102862;275;94629;-56
2023/08/13 05:53:15;;;;;;;6.10;5.10;;;;;;;23.99;55.81;100524.50;102876;275;97951;-56
2023/08/13 05:55:56;;;;;;;6.10;5.00;;;;;;;23.79;56.27;100520.45;102821;275;121167;-56
2023/08/13 05:58:37;;;;;;;7.20;5.60;;;;;;;23.66;56.63;100516.11;102863;275;105914;-54
2023/08/13 06:01:15;;;;;;;7.50;4.90;;;;;;;23.56;56.91;100516.90;102850;275;114538;-59
2023/08/13 06:03:54;;;;;;;8.40;6.00;;;;;;;23.52;56.99;100512.05;102914;275;94407;-58
2023/08/13 06:06:33;;;;;;;9.60;5.80;;;;;;;23.51;57.03;100513.27;102917;275;97602;-54
2023/08/13 06:09:08;;;;;;;8.30;5.00;;;;;;;23.63;57.17;100516.11;102863;275;119373;-53
2023/08/13 06:11:44;;;;;;;7.00;5.00;;;;;;;23.70;57.19;100518.39;102860;275;103865;-59
2023/08/13 06:14:22;;;;;;;6.60;5.10;;;;;;;23.76;57.20;100522.02;102874;275;115044;-58
2023/08/13 06:16:58;;;;;;;6.60;4.90;;;;;;;23.83;57.14;100520.95;102891;275;93353;-55
2023/08/13 06:19:38;;;;;;;6.00;5.20;;;;;;;23.95;57.71;100521.19;102849;275;96664;-55
2023/08/13 06:22:13;;;;;;;7.60;4.70;;;;;;;24.05;57.53;100521.80;102886;275;120789;-56
2023/08/13 06:24:49;;;;;;;7.00;5.00;;;;;;;24.19;57.70;100515.54;102879;275;105383;-55
2023/08/13 06:27:28;;;;;;;6.20;5.00;;;;;;;24.49;57.41;100518.89;102884;275;114504;-55
2023/08/13 06:30:09;;;;;;;7.10;5.20;;;;;;;24.96;57.10;100518.39;102859;275;94751;-56
2023/08/13 06:32:51;;;;;;;8.70;5.50;;;;;;;25.06;56.59;100520.35;102833;275;98072;-54
2023/08/13 06:35:29;;;;;;;6.70;4.60;;;;;;;25.18;56.47;100520.89;102852;275;120692;-56
2023/08/13 06:38:10;;;;;;;8.70;5.20;;;;;;;25.67;56.08;100517.38;102998;275;106344;-57
2023/08/13 06:40:49;;;;;;;5.40;4.30;;;;;;;27.71;55.39;100517.42;103034;275;112083;-57
2023/08/13 06:43:28;;;;;;;6.10;4.50;;;;;;;30.29;52.71;100514.66;102855;275;94537;-55
2023/08/13 06:46:08;;;;;;;5.50;4.70;;;;;;;31.77;49.67;100515.46;102852;275;97676;-53
2023/08/13 06:48:49;;;;;;;6.40;4.20;;;;;;;32.50;47.31;100510.70;102848;275;120610;-53
2023/08/13 06:51:29;;;;;;;8.10;4.80;;;;;;;31.51;45.76;100517.55;102681;275;106930;-58
2023/08/13 06:54:13;;;;;;;7.00;5.20;;;;;;;30.35;46.14;100515.11;103030;264;114075;-58
2023/08/13 06:56:50;;;;;;;6.10;4.40;;;;;;;29.57;46.45;100519.54;102973;275;93762;-54
2023/08/13 06:59:26;;;;;;;4.60;4.20;;;;;;;29.11;47.05;100522.98;102819;275;97596;-54
2023/08/13 07:02:09;;;;;;;5.00;4.40;;;;;;;28.73;47.38;100521.62;102847;275;120311;-54
2023/08/13 07:04:48;;;;;;;5.90;4.60;;;;;;;28.29;47.56;100523.03;102854;275;105685;-54
2023/08/13 07:07:30;;;;;;;5.50;4.80;;;;;;;27.89;48.01;100518.48;102850;275;114658;-55
2023/08/13 07:10:09;;;;;;;5.50;4.50;;;;;;;27.79;48.55;100520.20;102824;275;94805;-56
2023/08/13 07:12:49;;;;;;;6.40;4.30;;;;;;;28.03;48.75;100515.34;102875;275;99550;-54
2023/08/13 07:15:29;;;;;;;5.40;4.40;;;;;;;28.77;48.57;100517.68;102828;275;120603;-53
2023/08/13 07:18:08;;;;;;;6.80;4.30;;;;;;;29.62;47.68;100523.48;102912;275;106209;-56
2023/08/13 07:20:46;;;;;;;5.10;4.40;;;;;;;30.23;47.30;100529.59;102840;275;115199;-54
2023/08/13 07:23:22;;;;;;;6.30;4.30;;;;;;;31.57;46.41;100525.73;102847;275;93915;-56
2023/08/13 07:26:08;;;;;;;6.30;4.10;;;;;;;33.39;44.75;100519.95;102854;275;97571;-56
2023/08/13 07:28:44;;;;;;;6.80;4.20;;;;;;;35.16;42.50;100524.41;102854;275;120570;-54
2023/08/13 07:31:21;;;;;;;4.60;3.80;;;;;;;36.31;40.65;100525.02;102893;275;106004;-54
2023/08/13 07:33:57;;;;;;;4.90;3.80;;;;;;;37.43;39.21;100520.47;102804;275;114884;-54
2023/08/13 07:36:43;;;;;;;4.90;3.60;;;;;;;38.03;38.02;100508.73;102807;275;94236;-55
2023/08/13 07:39:23;;;;;;;5.10;3.60;;;;;;;37.70;36.81;100512.41;102853;275;98736;-56
2023/08/13 07:42:03;;;;;;;3.80;3.40;;;;;;;37.56;36.46;100513.87;102907;275;119957;-59
2023/08/13 07:44:43;;;;;;;6.80;4.00;;;;;;;38.23;35.95;100516.09;103007;275;105371;-59
2023/08/13 07:47:21;;;;;;;5.20;3.20;;;;;;;38.96;34.67;100505.98;102998;275;114483;-59
2023/08/13 07:49:56;;;;;;;4.20;3.50;;;;;;;39.42;33.76;100503.45;103023;275;92875;-59
2023/08/13 07:52:35;;;;;;;6.00;3.50;;;;;;;39.77;32.99;100507.48;102927;275;96859;-54
2023/08/13 07:55:11;;;;;;;3.80;3.30;;;;;;;39.93;32.51;100509.80;102715;277;119489;-54
2023/08/13 07:57:51;;;;;;;5.40;4.30;;;;;;;39.78;32.23;100512.41;103048;275;104934;-58
2023/08/13 08:00:27;;;;;;;4.80;3.50;;;;;;;40.36;31.82;100518.74;103001;275;115307;-59
2023/08/13 08:03:11;;;;;;;6.70;3.50;;;;;;;40.87;31.32;100521.60;102947;275;93268;-56
2023/08/13 08:05:49;;;;;;;4.30;3.30;;;;;;;40.85;30.97;100520.46;102871;275;98206;-56
2023/08/13 08:08:31;;;;;;;4.70;3.50;;;;;;;41.22;30.66;100518.54;102821;275;120072;-55
2023/08/13 08:11:09;;;;;;;5.20;3.90;;;;;;;41.62;30.04;100516.58;102852;275;105188;-56
2023/08/13 08:13:53;;;;;;;7.00;3.60;;;;;;;41.71;29.63;100513.15;102838;275;113672;-55
2023/08/13 08:16:30;;;;;;;4.30;3.80;;;;;;;41.56;29.20;100516.30;102886;275;95515;-57
2023/08/13 08:19:11;;;;;;;5.50;3.90;;;;;;;41.44;28.79;100516.70;102956;275;97711;-59
2023/08/13 08:21:48;;;;;;;6.20;3.40;;;;;;;41.50;28.49;100514.30;102925;275;121042;-54
2023/08/13 08:24:24;;;;;;;5.80;3.60;;;;;;;41.36;28.38;100515.98;102863;275;105105;-53
2023/08/13 08:27:02;;;;;;;5.50;3.60;;;;;;;41.56;28.39;100514.02;102846;275;113691;-55
2023/08/13 08:29:44;;;;;;;6.00;3.70;;;;;;;41.85;28.36;100515.98;102831;275;95267;-55
2023/08/13 08:32:21;;;;;;;3.70;3.20;;;;;;;41.76;27.67;100517.57;102857;275;97756;-53
2023/08/13 08:35:00;;;;;;;5.70;3.70;;;;;;;41.65;27.75;100516.19;102821;275;120533;-54
2023/08/13 08:37:41;;;;;;;3.50;3.10;;;;;;;41.67;28.14;100518.48;102880;275;105595;-57
2023/08/13 08:40:16;;;;;;;4.50;3.30;;;;;;;41.83;27.58;100516.65;102824;275;113821;-55
2023/08/13 08:42:57;;;;;;;4.30;3.90;;;;;;;41.93;27.46;100516.52;102887;275;94036;-55
2023/08/13 08:45:34;;;;;;;3.90;3.60;;;;;;;42.00;27.54;100518.11;102831;275;97665;-55
2023/08/13 08:48:15;;;;;;;4.20;3.80;;;;;;;42.01;27.38;100514.05;102841;275;120614;-53
2023/08/13 08:50:54;;;;;;;3.70;3.30;;;;;;;41.90;27.11;100510.77;102839;275;105145;-54
2023/08/13 08:53:34;;;;;;;4.70;3.60;;;;;;;41.86;27.22;100510.58;102893;275;112453;-57
2023/08/13 08:56:11;;;;;;;;;;;;;;;41.94;27.18;100509.96;102935;275;93808;-58
2023/08/13 08:58:47;;;;;;;4.00;3.40;;;;;;;41.93;27.07;100509.63;102972;275;96933;-58
2023/08/13 09:01:30;;;;;;;4.20;3.80;;;;;;;41.86;26.99;100509.92;102941;275;121427;-58
2023/08/13 09:04:08;;;;;;;5.50;3.90;;;;;;;41.78;27.01;100510.77;102973;275;105465;-59
2023/08/13 09:07:03;;;;;;;6.70;3.80;;;;;;;41.49;26.87;100505.71;102997;275;113755;-59
2023/08/13 09:09:43;;;;;;;5.80;3.40;;;;;;;41.02;27.13;100510.58;102964;275;94852;-59
2023/08/13 09:12:23;;;;;;;5.00;3.80;;;;;;;40.91;27.53;100513.81;102937;275;97850;-56
2023/08/13 09:15:09;;;;;;;7.10;3.90;;;;;;;40.82;27.59;100511.68;102836;275;121380;-56
2023/08/13 09:17:47;;;;;;;4.30;3.70;;;;;;;40.21;27.62;100512.27;102893;275;105661;-53
2023/08/13 09:20:23;;;;;;;4.40;3.80;;;;;;;39.26;28.36;100508.03;102828;275;114872;-54
2023/08/13 09:23:03;;;;;;;3.70;3.30;;;;;;;38.51;29.04;100506.27;102861;275;94313;-56
2023/08/13 09:25:43;;;;;;;6.10;4.00;;;;;;;37.96;29.83;100506.33;102823;275;97968;-56
2023/08/13 09:28:20;;;;;;;;;;;;;;;37.56;30.22;100503.88;102841;275;120859;-55
2023/08/13 09:31:01;;;;;;;4.10;3.70;;;;;;;36.89;31.17;100499.61;102860;275;105596;-54
2023/08/13 09:33:40;;;;;;;5.30;3.50;;;;;;;36.52;31.83;100494.89;102850;275;115047;-53
2023/08/13 09:36:18;;;;;;;4.40;3.90;;;;;;;36.26;32.21;100499.22;102833;275;95680;-55
2023/08/13 09:38:54;;;;;;;4.60;3.70;;;;;;;35.91;32.57;100500.66;102666;276;96678;-56
2023/08/13 09:41:30;;;;;;;4.20;3.40;;;;;;;35.63;33.35;100502.61;102838;275;121123;-56
2023/08/13 09:44:21;;;;;;;3.90;3.50;;;;;;;35.26;33.78;100500.14;102845;275;106757;-56
2023/08/13 09:47:02;;;;;;;4.80;3.80;;;;;;;35.10;34.26;100502.80;102819;275;114049;-53
2023/08/13 09:49:44;;;;;;;6.80;3.60;;;;;;;34.94;34.48;100499.41;102865;275;93575;-54
2023/08/13 09:52:33;;;;;;;3.80;3.50;;;;;;;34.80;34.53;100498.70;102837;275;97560;-54
2023/08/13 09:55:15;;;;;;;4.20;3.60;;;;;;;34.52;35.27;100497.92;102836;275;120931;-54
2023/08/13 09:57:54;;;;;;;3.80;3.40;;;;;;;34.49;35.90;100492.76;102852;275;106304;-55
2023/08/13 10:00:32;;;;;;;5.70;3.40;;;;;;;34.43;36.07;100501.44;102809;275;114015;-56
2023/08/13 10:03:13;;;;;;;4.80;3.80;;;;;;;34.33;35.82;100501.10;102822;275;94597;-55
2023/08/13 10:05:57;;;;;;;4.70;3.50;;;;;;;34.13;36.14;100500.59;102843;275;95661;-55
2023/08/13 10:08:37;;;;;;;5.70;3.50;;;;;;;34.05;36.57;100500.89;102899;275;120349;-58
2023/08/13 10:11:14;;;;;;;4.10;3.60;;;;;;;33.98;37.21;100499.42;102881;275;104870;-56
2023/08/13 10:13:54;;;;;;;4.10;3.70;;;;;;;33.97;37.36;100506.54;102801;275;114262;-56
2023/08/13 10:16:37;;;;;;;4.80;3.70;;;;;;;34.05;37.46;100505.88;102874;275;91970;-55
2023/08/13 10:19:15;;;;;;;3.90;3.60;;;;;;;34.05;37.52;100505.23;102849;275;98650;-55
2023/08/13 10:21:58;;;;;;;4.50;3.80;;;;;;;34.08;37.52;100503.84;102826;275;120841;-56
2023/08/13 10:24:32;;;;;;;;;;;;;;;34.07;37.58;100508.37;102840;275;103136;-56
2023/08/13 10:27:06;;;;;;;;;;;;;;;33.97;37.84;100508.84;102853;275;112554;-55
2023/08/13 10:29:43;;;;;;;5.80;3.90;;;;;;;33.92;37.86;100506.17;102833;275;95420;-55
2023/08/13 10:32:24;;;;;;;3.80;3.40;;;;;;;33.95;38.02;100506.84;102864;275;98016;-53
2023/08/13 10:35:20;;;;;;;5.70;4.10;;;;;;;34.00;38.01;100507.62;102806;275;120634;-54
2023/08/13 10:38:03;;;;;;;3.40;3.10;;;;;;;34.01;37.78;100507.61;102857;275;105388;-55
2023/08/13 10:40:58;;;;;;;5.40;3.10;;;;;;;33.98;38.19;100510.31;102775;275;114250;-56
2023/08/13 10:43:41;;;;;;;4.30;2.90;;;;;;;34.06;38.15;100510.56;102829;275;94627;-57
2023/08/13 10:46:26;;;;;;;3.50;3.20;;;;;;;34.07;38.07;100506.30;102872;275;97791;-55
2023/08/13 10:49:06;;;;;;;4.50;3.00;;;;;;;34.13;38.08;100504.99;102817;275;121597;-55
2023/08/13 10:51:43;;;;;;;4.30;3.20;;;;;;;34.16;37.81;100508.10;102855;264;104082;-55
2023/08/13 10:54:20;;;;;;;3.80;3.50;;;;;;;34.09;37.72;100506.20;102812;275;114827;-55
2023/08/13 10:57:02;;;;;;;4.10;3.60;;;;;;;33.94;37.55;100509.95;102873;275;94657;-55
2023/08/13 10:59:46;;;;;;;5.00;3.50;;;;;;;33.73;37.79;100503.62;102852;275;97780;-55
2023/08/13 11:02:32;;;;;;;4.90;3.30;;;;;;;33.81;38.36;100506.30;102872;275;121143;-58
2023/08/13 11:05:17;;;;;;;4.70;4.00;;;;;;;33.80;38.69;100507.42;102841;275;106116;-58
2023/08/13 11:07:55;;;;;;;5.30;3.70;;;;;;;33.93;38.36;100502.14;102842;275;114713;-56
2023/08/13 11:10:34;;;;;;;4.50;3.80;;;;;;;33.84;38.28;100505.08;102811;275;95277;-55
2023/08/13 11:13:09;;;;;;;4.70;3.30;;;;;;;33.82;38.30;100507.41;102520;275;505937;-54
2023/08/13 11:15:56;;;;;;;3.80;3.40;;;;;;;33.83;38.35;100503.21;102725;275;120508;-53
2023/08/13 11:18:32;;;;;;;4.40;3.00;;;;;;;33.78;38.40;100502.98;102833;275;105311;-53
2023/08/13 11:21:14;;;;;;;3.30;2.60;;;;;;;33.63;38.15;100505.91;102834;275;114453;-55
2023/08/13 11:23:54;;;;;;;3.00;2.60;;;;;;;33.64;38.24;100501.91;102807;275;94569;-55
2023/08/13 11:26:29;;;;;;;3.30;2.90;;;;;;;33.72;38.36;100503.70;102890;275;96620;-56
2023/08/13 11:29:05;;;;;;;5.50;3.70;;;;;;;33.83;38.53;100503.45;102811;275;120213;-56
2023/08/13 11:31:43;;;;;;;5.90;4.00;;;;;;;33.93;38.40;100500.36;102886;275;105664;-55
2023/08/13 11:34:21;;;;;;;4.80;2.90;;;;;;;33.92;38.49;100498.31;102841;275;113944;-56
2023/08/13 11:36:58;;;;;;;3.30;2.80;;;;;;;33.78;38.29;100496.48;102863;275;94753;-52
2023/08/13 11:39:35;;;;;;;3.10;2.80;;;;;;;33.77;38.47;100496.14;102845;275;96172;-53
2023/08/13 11:42:17;;;;;;;5.30;2.80;;;;;;;33.76;38.37;100492.83;102878;276;121153;-58
2023/08/13 11:44:55;;;;;;;3.40;3.10;;;;;;;33.82;38.62;100496.91;102866;275;104763;-57
2023/08/13 11:47:30;;;;;;;4.30;3.00;;;;;;;33.82;38.42;100499.39;102826;275;114234;-54
2023/08/13 11:50:18;;;;;;;3.10;2.60;;;;;;;33.81;38.32;100497.89;102802;275;93824;-53
2023/08/13 11:53:09;;;;;;;3.70;3.20;;;;;;;33.75;38.20;100494.01;102836;275;97509;-56
2023/08/13 11:55:50;;;;;;;5.00;3.60;;;;;;;33.71;38.23;100495.02;102802;275;121938;-56
2023/08/13 11:58:31;;;;;;;3.80;3.40;;;;;;;33.71;38.34;100492.23;102893;275;105063;-59
2023/08/13 12:01:15;;;;;;;5.30;3.20;;;;;;;33.45;38.40;100493.48;102815;276;113385;-56
2023/08/13 12:03:58;;;;;;;6.20;4.00;;;;;;;33.15;38.77;100495.73;102802;275;94941;-56
2023/08/13 12:06:39;;;;;;;3.90;3.60;;;;;;;33.24;38.97;100498.58;102843;275;97398;-54
2023/08/13 12:09:17;;;;;;;5.40;3.80;;;;;;;33.41;39.07;100501.30;102810;275;119688;-53
2023/08/13 12:11:57;;;;;;;4.40;3.60;;;;;;;33.47;39.06;100492.61;102883;264;105338;-54
2023/08/13 12:14:35;;;;;;;4.20;3.50;;;;;;;33.54;39.25;100501.06;102837;275;113825;-54
2023/08/13 12:17:14;;;;;;;4.60;3.50;;;;;;;33.62;39.25;100501.50;102824;275;93587;-54
2023/08/13 12:19:56;;;;;;;5.00;3.80;;;;;;;33.58;39.16;100496.38;102828;275;97942;-53